createdAt,value
2018-05-24T00:00:47.775Z,1015.05
2018-05-24T00:01:47.756Z,1015.06
2018-05-24T00:02:47.746Z,1015.07
2018-05-24T00:03:47.737Z,1015.06
2018-05-24T00:04:47.724Z,1015.10
2018-05-24T00:05:47.724Z,1015.09
2018-05-24T00:06:47.703Z,1015.09
2018-05-24T00:07:47.695Z,1015.10
2018-05-24T00:08:47.671Z,1015.10
2018-05-24T00:09:47.658Z,1015.10
2018-05-24T00:10:47.655Z,1015.08
2018-05-24T00:11:47.636Z,1015.09
2018-05-24T00:12:47.627Z,1015.10
2018-05-24T00:13:47.613Z,1015.10
2018-05-24T00:14:47.602Z,1015.09
2018-05-24T00:15:47.592Z,1015.09
2018-05-24T00:16:47.587Z,1015.14
2018-05-24T00:17:47.570Z,1015.12
2018-05-24T00:18:47.560Z,1015.11
2018-05-24T00:19:47.544Z,1015.10
2018-05-24T00:20:47.535Z,1015.11
2018-05-24T00:21:47.518Z,1015.10
2018-05-24T00:22:47.515Z,1015.10
2018-05-24T00:23:47.507Z,1015.09
2018-05-24T00:24:47.490Z,1015.09
2018-05-24T00:25:47.472Z,1015.14
2018-05-24T00:26:47.465Z,1015.09
2018-05-24T00:27:47.453Z,1015.07
2018-05-24T00:28:47.446Z,1015.08
2018-05-24T00:29:47.424Z,1015.06
2018-05-24T00:30:47.414Z,1015.04
2018-05-24T00:31:47.404Z,1015.03
2018-05-24T00:32:47.394Z,1015.03
2018-05-24T00:33:47.378Z,1015.02
2018-05-24T00:34:47.382Z,1015.02
2018-05-24T00:35:47.359Z,1015.00
2018-05-24T00:36:47.346Z,1015.05
2018-05-24T00:37:47.334Z,1014.99
2018-05-24T00:38:47.321Z,1015.01
2018-05-24T00:39:47.308Z,1015.01
2018-05-24T00:40:47.304Z,1015.01
2018-05-24T00:41:47.288Z,1015.01
2018-05-24T00:42:47.273Z,1015.02
2018-05-24T00:43:47.266Z,1014.99
2018-05-24T00:44:47.248Z,1015.00
2018-05-24T00:45:47.238Z,1014.99
2018-05-24T00:46:47.225Z,1015.00
2018-05-24T00:47:47.216Z,1014.97
2018-05-24T00:48:47.202Z,1014.98
2018-05-24T00:49:47.186Z,1014.99
2018-05-24T00:50:47.180Z,1014.97
2018-05-24T00:51:47.169Z,1014.95
2018-05-24T00:52:47.152Z,1014.95
2018-05-24T00:53:47.138Z,1014.93
2018-05-24T00:54:47.241Z,1014.94
2018-05-24T00:55:47.123Z,1014.94
2018-05-24T00:56:47.101Z,1014.96
2018-05-24T00:57:47.091Z,1014.98
2018-05-24T00:58:47.124Z,1014.94
2018-05-24T00:59:47.068Z,1014.91
2018-05-24T01:00:47.054Z,1014.91
2018-05-24T01:01:47.043Z,1014.88
2018-05-24T01:02:47.030Z,1014.89
2018-05-24T01:03:47.171Z,1014.89
2018-05-24T01:04:47.006Z,1014.88
2018-05-24T01:05:47.096Z,1014.85
2018-05-24T01:06:46.976Z,1014.87
2018-05-24T01:07:47.121Z,1014.85
2018-05-24T01:08:46.959Z,1014.85
2018-05-24T01:09:46.949Z,1014.84
2018-05-24T01:10:46.928Z,1014.83
2018-05-24T01:11:47.020Z,1014.87
2018-05-24T01:12:46.908Z,1014.83
2018-05-24T01:13:46.899Z,1014.86
2018-05-24T01:14:46.895Z,1014.83
2018-05-24T01:15:47.009Z,1014.82
2018-05-24T01:16:46.862Z,1014.85
2018-05-24T01:17:46.898Z,1014.85
2018-05-24T01:18:46.837Z,1014.84
2018-05-24T01:19:46.827Z,1014.83
2018-05-24T01:20:46.812Z,1014.81
2018-05-24T01:21:46.802Z,1014.82
2018-05-24T01:22:46.791Z,1014.81
2018-05-24T01:23:46.777Z,1014.81
2018-05-24T01:24:46.756Z,1014.79
2018-05-24T01:25:46.744Z,1014.81
2018-05-24T01:26:46.758Z,1014.82
2018-05-24T01:27:46.731Z,1014.80
2018-05-24T01:28:46.719Z,1014.80
2018-05-24T01:29:46.713Z,1014.81
2018-05-24T01:30:46.698Z,1014.76
2018-05-24T01:31:46.678Z,1014.78
2018-05-24T01:32:46.673Z,1014.79
2018-05-24T01:33:46.657Z,1014.76
2018-05-24T01:34:46.644Z,1014.75
2018-05-24T01:35:46.628Z,1014.73
2018-05-24T01:36:46.622Z,1014.71
2018-05-24T01:37:46.602Z,1014.74
2018-05-24T01:38:46.596Z,1014.70
2018-05-24T01:39:46.577Z,1014.71
2018-05-24T01:40:46.567Z,1014.72
2018-05-24T01:41:46.555Z,1014.70
2018-05-24T01:42:46.551Z,1014.67
2018-05-24T01:43:46.536Z,1014.71
2018-05-24T01:44:46.523Z,1014.70
2018-05-24T01:45:46.510Z,1014.70
2018-05-24T01:46:46.504Z,1014.73
2018-05-24T01:47:46.487Z,1014.66
2018-05-24T01:48:46.479Z,1014.69
2018-05-24T01:49:46.462Z,1014.70
2018-05-24T01:50:46.446Z,1014.73
2018-05-24T01:51:46.440Z,1014.71
2018-05-24T01:52:46.420Z,1014.70
2018-05-24T01:53:46.418Z,1014.74
2018-05-24T01:54:46.399Z,1014.67
2018-05-24T01:55:46.392Z,1014.67
2018-05-24T01:56:46.382Z,1014.63
2018-05-24T01:57:46.373Z,1014.63
2018-05-24T01:58:46.347Z,1014.63
2018-05-24T01:59:46.341Z,1014.63
2018-05-24T02:00:46.328Z,1014.60
2018-05-24T02:01:46.314Z,1014.59
2018-05-24T02:02:46.317Z,1014.61
2018-05-24T02:03:46.299Z,1014.61
2018-05-24T02:04:46.277Z,1014.57
2018-05-24T02:05:46.261Z,1014.57
2018-05-24T02:06:46.260Z,1014.56
2018-05-24T02:07:46.252Z,1014.54
2018-05-24T02:08:46.233Z,1014.55
2018-05-24T02:09:46.217Z,1014.58
2018-05-24T02:10:46.205Z,1014.58
2018-05-24T02:11:46.196Z,1014.59
2018-05-24T02:12:46.184Z,1014.60
2018-05-24T02:13:46.172Z,1014.59
2018-05-24T02:14:46.159Z,1014.62
2018-05-24T02:15:46.149Z,1014.56
2018-05-24T02:16:46.134Z,1014.57
2018-05-24T02:17:46.124Z,1014.58
2018-05-24T02:18:46.114Z,1014.58
2018-05-24T02:19:46.098Z,1014.58
2018-05-24T02:20:46.093Z,1014.60
2018-05-24T02:21:46.073Z,1014.56
2018-05-24T02:22:46.057Z,1014.55
2018-05-24T02:23:46.049Z,1014.57
2018-05-24T02:24:46.038Z,1014.54
2018-05-24T02:25:46.026Z,1014.54
2018-05-24T02:26:46.013Z,1014.56
2018-05-24T02:27:46.003Z,1014.53
2018-05-24T02:28:46.042Z,1014.56
2018-05-24T02:29:45.977Z,1014.56
2018-05-24T02:30:45.961Z,1014.57
2018-05-24T02:31:45.952Z,1014.57
2018-05-24T02:32:45.988Z,1014.55
2018-05-24T02:33:45.933Z,1014.59
2018-05-24T02:34:45.917Z,1014.55
2018-05-24T02:35:45.932Z,1014.55
2018-05-24T02:36:45.906Z,1014.58
2018-05-24T02:37:45.876Z,1014.55
2018-05-24T02:38:45.869Z,1014.53
2018-05-24T02:39:45.854Z,1014.53
2018-05-24T02:40:45.847Z,1014.49
2018-05-24T02:41:45.834Z,1014.51
2018-05-24T02:42:45.819Z,1014.49
2018-05-24T02:43:45.799Z,1014.46
2018-05-24T02:44:45.804Z,1014.45
2018-05-24T02:45:45.784Z,1014.43
2018-05-24T02:46:45.772Z,1014.44
2018-05-24T02:47:45.758Z,1014.42
2018-05-24T02:48:45.747Z,1014.43
2018-05-24T02:49:45.736Z,1014.44
2018-05-24T02:50:45.717Z,1014.41
2018-05-24T02:51:45.712Z,1014.40
2018-05-24T02:52:45.702Z,1014.43
2018-05-24T02:53:45.684Z,1014.43
2018-05-24T02:54:45.674Z,1014.44
2018-05-24T02:55:45.656Z,1014.44
2018-05-24T02:56:45.651Z,1014.41
2018-05-24T02:57:45.636Z,1014.38
2018-05-24T02:58:45.625Z,1014.40
2018-05-24T02:59:45.620Z,1014.40
2018-05-24T03:00:45.603Z,1014.38
2018-05-24T03:01:45.612Z,1014.38
2018-05-24T03:02:45.583Z,1014.42
2018-05-24T03:03:45.607Z,1014.40
2018-05-24T03:04:45.558Z,1014.39
2018-05-24T03:05:45.537Z,1014.35
2018-05-24T03:06:45.518Z,1014.36
2018-05-24T03:07:45.517Z,1014.36
2018-05-24T03:08:45.502Z,1014.39
2018-05-24T03:09:45.491Z,1014.39
2018-05-24T03:10:45.550Z,1014.43
2018-05-24T03:11:45.463Z,1014.40
2018-05-24T03:12:45.452Z,1014.37
2018-05-24T03:13:45.446Z,1014.40
2018-05-24T03:14:45.425Z,1014.43
2018-05-24T03:15:45.416Z,1014.46
2018-05-24T03:16:45.403Z,1014.43
2018-05-24T03:17:45.387Z,1014.41
2018-05-24T03:18:45.381Z,1014.42
2018-05-24T03:19:45.367Z,1014.43
2018-05-24T03:20:45.354Z,1014.42
2018-05-24T03:21:45.392Z,1014.44
2018-05-24T03:22:45.328Z,1014.44
2018-05-24T03:23:45.352Z,1014.44
2018-05-24T03:24:45.306Z,1014.49
2018-05-24T03:25:45.306Z,1014.48
2018-05-24T03:26:45.279Z,1014.46
2018-05-24T03:27:45.315Z,1014.45
2018-05-24T03:28:45.257Z,1014.44
2018-05-24T03:29:45.242Z,1014.43
2018-05-24T03:30:45.232Z,1014.41
2018-05-24T03:31:45.228Z,1014.43
2018-05-24T03:32:45.207Z,1014.37
2018-05-24T03:33:45.189Z,1014.37
2018-05-24T03:34:45.176Z,1014.33
2018-05-24T03:35:45.172Z,1014.36
2018-05-24T03:36:45.164Z,1014.40
2018-05-24T03:37:45.152Z,1014.44
2018-05-24T03:38:45.129Z,1014.39
2018-05-24T03:39:45.120Z,1014.38
2018-05-24T03:40:45.113Z,1014.41
2018-05-24T03:41:45.100Z,1014.38
2018-05-24T03:42:45.084Z,1014.38
2018-05-24T03:43:45.071Z,1014.37
2018-05-24T03:44:45.058Z,1014.30
2018-05-24T03:45:45.051Z,1014.35
2018-05-24T03:46:45.036Z,1014.36
2018-05-24T03:47:45.023Z,1014.38
2018-05-24T03:48:45.013Z,1014.36
2018-05-24T03:49:44.997Z,1014.40
2018-05-24T03:50:44.991Z,1014.37
2018-05-24T03:51:44.978Z,1014.36
2018-05-24T03:52:44.963Z,1014.31
2018-05-24T03:53:44.943Z,1014.30
2018-05-24T03:54:44.943Z,1014.30
2018-05-24T03:55:44.932Z,1014.30
2018-05-24T03:56:44.910Z,1014.30
2018-05-24T03:57:44.922Z,1014.29
2018-05-24T03:58:44.891Z,1014.33
2018-05-24T03:59:44.879Z,1014.30
2018-05-24T04:00:44.872Z,1014.27
2018-05-24T04:01:44.850Z,1014.26
2018-05-24T04:02:44.843Z,1014.25
2018-05-24T04:03:44.827Z,1014.21
2018-05-24T04:04:44.814Z,1014.23
2018-05-24T04:05:44.869Z,1014.21
2018-05-24T04:06:44.782Z,1014.19
2018-05-24T04:07:44.785Z,1014.21
2018-05-24T04:08:44.773Z,1014.23
2018-05-24T04:09:44.758Z,1014.20
2018-05-24T04:10:44.741Z,1014.24
2018-05-24T04:11:44.734Z,1014.21
2018-05-24T04:12:44.716Z,1014.21
2018-05-24T04:13:44.712Z,1014.22
2018-05-24T04:14:44.690Z,1014.23
2018-05-24T04:15:44.677Z,1014.27
2018-05-24T04:16:44.667Z,1014.23
2018-05-24T04:17:44.663Z,1014.22
2018-05-24T04:18:44.638Z,1014.20
2018-05-24T04:19:44.625Z,1014.23
2018-05-24T04:20:44.619Z,1014.23
2018-05-24T04:21:44.612Z,1014.23
2018-05-24T04:22:44.591Z,1014.25
2018-05-24T04:23:44.587Z,1014.28
2018-05-24T04:24:44.574Z,1014.28
2018-05-24T04:25:44.558Z,1014.22
2018-05-24T04:26:44.538Z,1014.27
2018-05-24T04:27:44.533Z,1014.31
2018-05-24T04:28:44.523Z,1014.24
2018-05-24T04:29:44.509Z,1014.26
2018-05-24T04:30:44.513Z,1014.18
2018-05-24T04:31:44.484Z,1014.21
2018-05-24T04:32:44.468Z,1014.20
2018-05-24T04:33:44.462Z,1014.20
2018-05-24T04:34:44.597Z,1014.18
2018-05-24T04:35:44.442Z,1014.18
2018-05-24T04:36:44.446Z,1014.20
2018-05-24T04:37:44.407Z,1014.18
2018-05-24T04:38:44.464Z,1014.17
2018-05-24T04:39:44.389Z,1014.23
2018-05-24T04:40:44.378Z,1014.24
2018-05-24T04:41:44.362Z,1014.18
2018-05-24T04:42:44.403Z,1014.22
2018-05-24T04:43:44.340Z,1014.21
2018-05-24T04:44:44.328Z,1014.22
2018-05-24T04:45:44.313Z,1014.23
2018-05-24T04:46:44.297Z,1014.25
2018-05-24T04:47:44.287Z,1014.27
2018-05-24T04:48:44.334Z,1014.25
2018-05-24T04:49:44.261Z,1014.25
2018-05-24T04:50:44.300Z,1014.21
2018-05-24T04:51:44.239Z,1014.23
2018-05-24T04:52:44.230Z,1014.24
2018-05-24T04:53:44.213Z,1014.23
2018-05-24T04:54:44.255Z,1014.27
2018-05-24T04:55:44.194Z,1014.30
2018-05-24T04:56:44.182Z,1014.31
2018-05-24T04:57:44.164Z,1014.34
2018-05-24T04:58:44.162Z,1014.33
2018-05-24T04:59:44.153Z,1014.31
2018-05-24T05:00:44.126Z,1014.30
2018-05-24T05:01:44.277Z,1014.32
2018-05-24T05:02:44.115Z,1014.31
2018-05-24T05:03:44.095Z,1014.30
2018-05-24T05:04:44.083Z,1014.29
2018-05-24T05:05:44.070Z,1014.28
2018-05-24T05:06:44.057Z,1014.28
2018-05-24T05:07:44.048Z,1014.27
2018-05-24T05:08:44.040Z,1014.26
2018-05-24T05:09:44.015Z,1014.29
2018-05-24T05:10:44.012Z,1014.22
2018-05-24T05:11:43.999Z,1014.25
2018-05-24T05:12:43.993Z,1014.24
2018-05-24T05:13:43.974Z,1014.25
2018-05-24T05:14:44.005Z,1014.27
2018-05-24T05:15:43.951Z,1014.26
2018-05-24T05:16:43.939Z,1014.27
2018-05-24T05:17:43.923Z,1014.24
2018-05-24T05:18:43.914Z,1014.24
2018-05-24T05:19:43.955Z,1014.25
2018-05-24T05:20:43.892Z,1014.23
2018-05-24T05:21:43.872Z,1014.26
2018-05-24T05:22:43.869Z,1014.25
2018-05-24T05:23:43.856Z,1014.26
2018-05-24T05:24:43.840Z,1014.25
2018-05-24T05:25:43.827Z,1014.28
2018-05-24T05:26:43.818Z,1014.27
2018-05-24T05:27:43.808Z,1014.25
2018-05-24T05:28:43.802Z,1014.27
2018-05-24T05:29:43.789Z,1014.27
2018-05-24T05:30:43.769Z,1014.29
2018-05-24T05:31:43.824Z,1014.30
2018-05-24T05:32:43.748Z,1014.28
2018-05-24T05:33:43.735Z,1014.27
2018-05-24T05:34:43.733Z,1014.28
2018-05-24T05:35:43.713Z,1014.33
2018-05-24T05:36:43.707Z,1014.29
2018-05-24T05:37:43.694Z,1014.27
2018-05-24T05:38:43.681Z,1014.28
2018-05-24T05:39:43.662Z,1014.28
2018-05-24T05:40:43.653Z,1014.27
2018-05-24T05:41:43.642Z,1014.27
2018-05-24T05:42:43.632Z,1014.28
2018-05-24T05:43:43.623Z,1014.24
2018-05-24T05:44:43.643Z,1014.23
2018-05-24T05:45:43.595Z,1014.24
2018-05-24T05:46:43.589Z,1014.23
2018-05-24T05:47:43.573Z,1014.25
2018-05-24T05:48:43.563Z,1014.23
2018-05-24T05:49:43.553Z,1014.24
2018-05-24T05:50:43.540Z,1014.18
2018-05-24T05:51:43.527Z,1014.20
2018-05-24T05:52:43.521Z,1014.21
2018-05-24T05:53:43.503Z,1014.17
2018-05-24T05:54:43.494Z,1014.23
2018-05-24T05:55:43.480Z,1014.19
2018-05-24T05:56:43.472Z,1014.21
2018-05-24T05:57:43.458Z,1014.20
2018-05-24T05:58:43.448Z,1014.18
2018-05-24T05:59:43.435Z,1014.19
2018-05-24T06:00:43.423Z,1014.20
2018-05-24T06:01:43.473Z,1014.19
2018-05-24T06:02:43.404Z,1014.18
2018-05-24T06:03:43.385Z,1014.19
2018-05-24T06:04:43.372Z,1014.18
2018-05-24T06:05:43.369Z,1014.22
2018-05-24T06:06:43.356Z,1014.21
2018-05-24T06:07:43.346Z,1014.16
2018-05-24T06:08:43.330Z,1014.17
2018-05-24T06:09:43.347Z,1014.19
2018-05-24T06:10:43.312Z,1014.22
2018-05-24T06:11:43.303Z,1014.23
2018-05-24T06:12:43.294Z,1014.22
2018-05-24T06:13:43.285Z,1014.22
2018-05-24T06:14:43.269Z,1014.26
2018-05-24T06:15:43.259Z,1014.25
2018-05-24T06:16:43.245Z,1014.26
2018-05-24T06:17:43.231Z,1014.26
2018-05-24T06:18:43.217Z,1014.27
2018-05-24T06:19:43.207Z,1014.28
2018-05-24T06:20:43.201Z,1014.31
2018-05-24T06:21:43.268Z,1014.30
2018-05-24T06:22:43.172Z,1014.26
2018-05-24T06:23:43.168Z,1014.30
2018-05-24T06:24:43.162Z,1014.31
2018-05-24T06:25:43.154Z,1014.33
2018-05-24T06:26:43.137Z,1014.30
2018-05-24T06:27:43.124Z,1014.32
2018-05-24T06:28:43.118Z,1014.36
2018-05-24T06:29:43.100Z,1014.36
2018-05-24T06:30:43.093Z,1014.35
2018-05-24T06:31:43.087Z,1014.34
2018-05-24T06:32:43.100Z,1014.36
2018-05-24T06:33:43.061Z,1014.38
2018-05-24T06:34:43.140Z,1014.36
2018-05-24T06:35:43.043Z,1014.39
2018-05-24T06:36:43.031Z,1014.43
2018-05-24T06:37:43.023Z,1014.40
2018-05-24T06:38:43.012Z,1014.38
2018-05-24T06:39:42.994Z,1014.40
2018-05-24T06:40:42.982Z,1014.42
2018-05-24T06:41:42.981Z,1014.49
2018-05-24T06:42:43.026Z,1014.46
2018-05-24T06:43:42.962Z,1014.51
2018-05-24T06:44:43.103Z,1014.51
2018-05-24T06:45:42.935Z,1014.49
2018-05-24T06:46:42.923Z,1014.44
2018-05-24T06:47:42.910Z,1014.38
2018-05-24T06:48:42.934Z,1014.41
2018-05-24T06:49:42.887Z,1014.43
2018-05-24T06:50:42.907Z,1014.43
2018-05-24T06:51:42.872Z,1014.45
2018-05-24T06:52:42.855Z,1014.43
2018-05-24T06:53:42.907Z,1014.46
2018-05-24T06:54:42.891Z,1014.53
2018-05-24T06:55:42.826Z,1014.48
2018-05-24T06:56:42.817Z,1014.52
2018-05-24T06:57:42.804Z,1014.45
2018-05-24T06:58:42.805Z,1014.48
2018-05-24T06:59:42.792Z,1014.50
2018-05-24T07:00:42.782Z,1014.47
2018-05-24T07:01:42.768Z,1014.47
2018-05-24T07:02:42.760Z,1014.45
2018-05-24T07:03:42.745Z,1014.45
2018-05-24T07:04:42.738Z,1014.48
2018-05-24T07:05:42.724Z,1014.50
2018-05-24T07:06:42.721Z,1014.48
2018-05-24T07:07:42.710Z,1014.48
2018-05-24T07:08:42.697Z,1014.51
2018-05-24T07:09:42.688Z,1014.55
2018-05-24T07:10:42.675Z,1014.49
2018-05-24T07:11:42.672Z,1014.52
2018-05-24T07:12:42.663Z,1014.49
2018-05-24T07:13:42.651Z,1014.52
2018-05-24T07:14:42.646Z,1014.49
2018-05-24T07:15:42.631Z,1014.46
2018-05-24T07:16:42.632Z,1014.48
2018-05-24T07:17:42.615Z,1014.49
2018-05-24T07:18:42.626Z,1014.51
2018-05-24T07:19:42.598Z,1014.45
2018-05-24T07:20:42.589Z,1014.50
2018-05-24T07:21:42.581Z,1014.54
2018-05-24T07:22:42.572Z,1014.48
2018-05-24T07:23:42.560Z,1014.47
2018-05-24T07:24:42.666Z,1014.46
2018-05-24T07:25:42.534Z,1014.43
2018-05-24T07:26:42.535Z,1014.40
2018-05-24T07:27:42.528Z,1014.42
2018-05-24T07:28:42.529Z,1014.38
2018-05-24T07:29:42.510Z,1014.37
2018-05-24T07:30:42.499Z,1014.37
2018-05-24T07:31:42.535Z,1014.31
2018-05-24T07:32:42.481Z,1014.30
2018-05-24T07:33:42.525Z,1014.28
2018-05-24T07:34:42.503Z,1014.25
2018-05-24T07:35:42.493Z,1014.25
2018-05-24T07:36:42.441Z,1014.25
2018-05-24T07:37:42.439Z,1014.29
2018-05-24T07:38:42.424Z,1014.28
2018-05-24T07:39:42.429Z,1014.21
2018-05-24T07:40:42.404Z,1014.19
2018-05-24T07:41:42.387Z,1014.19
2018-05-24T07:42:42.388Z,1014.16
2018-05-24T07:43:42.385Z,1014.13
2018-05-24T07:44:42.365Z,1014.13
2018-05-24T07:45:42.358Z,1014.17
2018-05-24T07:46:42.349Z,1014.16
2018-05-24T07:47:42.340Z,1014.17
2018-05-24T07:48:42.332Z,1014.13
2018-05-24T07:49:42.313Z,1014.16
2018-05-24T07:50:42.309Z,1014.18
2018-05-24T07:51:42.297Z,1014.19
2018-05-24T07:52:42.287Z,1014.21
2018-05-24T07:53:42.282Z,1014.16
2018-05-24T07:54:42.345Z,1014.22
2018-05-24T07:55:42.262Z,1014.20
2018-05-24T07:56:42.253Z,1014.21
2018-05-24T07:57:42.239Z,1014.24
2018-05-24T07:58:42.233Z,1014.20
2018-05-24T07:59:42.232Z,1014.20
2018-05-24T08:00:42.218Z,1014.22
2018-05-24T08:01:42.240Z,1014.22
2018-05-24T08:02:42.208Z,1014.24
2018-05-24T08:03:42.182Z,1014.23
2018-05-24T08:04:42.182Z,1014.21
2018-05-24T08:05:42.172Z,1014.20
2018-05-24T08:06:42.160Z,1014.19
2018-05-24T08:07:42.157Z,1014.15
2018-05-24T08:08:42.216Z,1014.19
2018-05-24T08:09:42.141Z,1014.23
2018-05-24T08:10:42.131Z,1014.19
2018-05-24T08:11:42.128Z,1014.19
2018-05-24T08:12:42.111Z,1014.18
2018-05-24T08:13:42.109Z,1014.21
2018-05-24T08:14:42.134Z,1014.19
2018-05-24T08:15:42.098Z,1014.16
2018-05-24T08:16:42.079Z,1014.25
2018-05-24T08:17:42.078Z,1014.24
2018-05-24T08:18:42.064Z,1014.24
2018-05-24T08:19:42.056Z,1014.22
2018-05-24T08:20:42.050Z,1014.23
2018-05-24T08:21:42.125Z,1014.21
2018-05-24T08:22:42.059Z,1014.21
2018-05-24T08:23:42.041Z,1014.26
2018-05-24T08:24:42.024Z,1014.27
2018-05-24T08:25:42.005Z,1014.22
2018-05-24T08:26:42.009Z,1014.16
2018-05-24T08:27:42.002Z,1014.20
2018-05-24T08:28:41.992Z,1014.25
2018-05-24T08:29:41.980Z,1014.29
2018-05-24T08:30:42.003Z,1014.28
2018-05-24T08:31:41.980Z,1014.25
2018-05-24T08:32:41.974Z,1014.31
2018-05-24T08:33:41.962Z,1014.33
2018-05-24T08:34:41.962Z,1014.26
2018-05-24T08:35:41.944Z,1014.34
2018-05-24T08:36:41.945Z,1014.52
2018-05-24T08:37:41.939Z,1014.23
2018-05-24T08:38:41.942Z,1014.18
2018-05-24T08:39:41.928Z,1014.26
2018-05-24T08:40:41.969Z,1014.27
2018-05-24T08:41:41.990Z,1014.69
2018-05-24T08:42:41.908Z,1014.49
2018-05-24T08:43:41.907Z,1014.89
2018-05-24T08:44:41.904Z,1014.94
2018-05-24T08:45:41.904Z,1014.85
2018-05-24T08:46:41.896Z,1014.92
2018-05-24T08:47:41.888Z,1014.91
2018-05-24T08:48:41.886Z,1014.90
2018-05-24T08:49:41.882Z,1014.91
2018-05-24T08:50:41.886Z,1014.90
2018-05-24T08:51:41.884Z,1014.91
2018-05-24T08:52:41.889Z,1014.82
2018-05-24T08:53:41.873Z,1014.87
2018-05-24T08:54:41.867Z,1014.82
2018-05-24T08:55:41.878Z,1014.97
2018-05-24T08:56:41.879Z,1014.93
2018-05-24T08:57:41.860Z,1014.72
2018-05-24T08:58:41.859Z,1014.50
2018-05-24T08:59:41.857Z,1014.32
2018-05-24T09:00:41.859Z,1014.44
2018-05-24T09:01:41.877Z,1014.93
2018-05-24T09:02:41.863Z,1014.94
2018-05-24T09:03:41.851Z,1014.76
2018-05-24T09:04:41.854Z,1014.83
2018-05-24T09:05:41.847Z,1014.73
2018-05-24T09:06:41.848Z,1014.53
2018-05-24T09:07:41.845Z,1014.73
2018-05-24T09:08:41.843Z,1014.57
2018-05-24T09:09:41.844Z,1014.62
2018-05-24T09:10:41.838Z,1014.26
2018-05-24T09:11:41.844Z,1014.32
2018-05-24T09:12:41.848Z,1014.33
2018-05-24T09:13:41.865Z,1014.33
2018-05-24T09:14:41.846Z,1014.46
2018-05-24T09:15:41.851Z,1014.50
2018-05-24T09:16:41.849Z,1014.40
2018-05-24T09:17:41.834Z,1014.72
2018-05-24T09:18:41.843Z,1014.47
2018-05-24T09:19:41.832Z,1014.62
2018-05-24T09:20:41.829Z,1014.49
2018-05-24T09:21:41.885Z,1014.32
2018-05-24T09:22:41.822Z,1014.22
2018-05-24T09:23:41.816Z,1014.28
2018-05-24T09:24:41.835Z,1014.25
2018-05-24T09:25:41.811Z,1014.20
2018-05-24T09:26:41.816Z,1014.20
2018-05-24T09:27:41.803Z,1014.52
2018-05-24T09:28:41.793Z,1014.40
2018-05-24T09:29:41.800Z,1014.24
2018-05-24T09:30:41.890Z,1014.29
2018-05-24T09:31:41.791Z,1014.23
2018-05-24T09:32:41.784Z,1014.19
2018-05-24T09:33:41.774Z,1014.41
2018-05-24T09:34:41.767Z,1014.24
2018-05-24T09:35:41.774Z,1014.22
2018-05-24T09:36:41.759Z,1014.23
2018-05-24T09:37:41.764Z,1014.21
2018-05-24T09:38:41.758Z,1014.29
2018-05-24T09:39:41.748Z,1014.46
2018-05-24T09:40:41.754Z,1014.37
2018-05-24T09:41:41.738Z,1014.33
2018-05-24T09:42:41.732Z,1014.05
2018-05-24T09:43:41.733Z,1014.10
2018-05-24T09:44:41.721Z,1014.05
2018-05-24T09:45:41.723Z,1014.26
2018-05-24T09:46:41.726Z,1014.19
2018-05-24T09:47:41.713Z,1014.20
2018-05-24T09:48:41.700Z,1014.17
2018-05-24T09:49:41.703Z,1014.16
2018-05-24T09:50:41.688Z,1014.19
2018-05-24T09:51:41.707Z,1014.19
2018-05-24T09:52:41.684Z,1014.19
2018-05-24T09:53:41.684Z,1014.13
2018-05-24T09:54:41.678Z,1014.12
2018-05-24T09:55:41.760Z,1014.11
2018-05-24T09:56:41.662Z,1014.19
2018-05-24T09:57:41.781Z,1014.18
2018-05-24T09:58:41.665Z,1014.07
2018-05-24T09:59:41.667Z,1014.12
2018-05-24T10:00:41.653Z,1014.14
2018-05-24T10:01:41.697Z,1014.17
2018-05-24T10:02:41.642Z,1014.12
2018-05-24T10:03:41.639Z,1014.00
2018-05-24T10:04:41.743Z,1014.02
2018-05-24T10:05:41.681Z,1013.96
2018-05-24T10:06:41.627Z,1013.93
2018-05-24T10:07:41.627Z,1013.94
2018-05-24T10:08:41.617Z,1013.97
2018-05-24T10:09:41.617Z,1013.90
2018-05-24T10:10:41.642Z,1013.94
2018-05-24T10:11:41.611Z,1013.88
2018-05-24T10:12:41.606Z,1013.89
2018-05-24T10:13:41.598Z,1013.93
2018-05-24T10:14:41.597Z,1013.93
2018-05-24T10:15:41.601Z,1013.83
2018-05-24T10:16:41.591Z,1013.87
2018-05-24T10:17:41.595Z,1013.84
2018-05-24T10:18:41.576Z,1013.88
2018-05-24T10:19:41.575Z,1013.87
2018-05-24T10:20:41.573Z,1013.87
2018-05-24T10:21:41.573Z,1013.83
2018-05-24T10:22:41.564Z,1013.79
2018-05-24T10:23:41.556Z,1013.83
2018-05-24T10:24:41.556Z,1013.83
2018-05-24T10:25:41.542Z,1013.81
2018-05-24T10:26:41.544Z,1013.89
2018-05-24T10:27:41.581Z,1013.76
2018-05-24T10:28:41.575Z,1013.81
2018-05-24T10:29:41.529Z,1013.79
2018-05-24T10:30:41.521Z,1013.75
2018-05-24T10:31:41.516Z,1013.79
2018-05-24T10:32:41.547Z,1013.80
2018-05-24T10:33:41.496Z,1013.79
2018-05-24T10:34:41.502Z,1013.81
2018-05-24T10:35:41.487Z,1013.75
2018-05-24T10:36:41.493Z,1013.85
2018-05-24T10:37:41.465Z,1013.81
2018-05-24T10:38:41.470Z,1013.82
2018-05-24T10:39:41.458Z,1013.86
2018-05-24T10:40:41.452Z,1013.81
2018-05-24T10:41:41.444Z,1013.83
2018-05-24T10:42:41.437Z,1013.85
2018-05-24T10:43:41.430Z,1013.82
2018-05-24T10:44:41.429Z,1013.85
2018-05-24T10:45:41.423Z,1013.86
2018-05-24T10:46:41.422Z,1013.85
2018-05-24T10:47:41.410Z,1013.79
2018-05-24T10:48:41.398Z,1013.82
2018-05-24T10:49:41.389Z,1013.82
2018-05-24T10:50:41.382Z,1013.84
2018-05-24T10:51:41.382Z,1013.84
2018-05-24T10:52:41.368Z,1013.81
2018-05-24T10:53:41.360Z,1013.85
2018-05-24T10:54:41.356Z,1013.78
2018-05-24T10:55:41.347Z,1013.83
2018-05-24T10:56:41.376Z,1013.79
2018-05-24T10:57:41.341Z,1013.83
2018-05-24T10:58:41.333Z,1013.84
2018-05-24T10:59:41.375Z,1013.79
2018-05-24T11:00:41.314Z,1013.83
2018-05-24T11:01:41.305Z,1013.76
2018-05-24T11:02:41.302Z,1013.84
2018-05-24T11:03:41.292Z,1013.84
2018-05-24T11:04:41.282Z,1013.85
2018-05-24T11:05:41.270Z,1013.78
2018-05-24T11:06:41.263Z,1013.75
2018-05-24T11:07:41.257Z,1013.77
2018-05-24T11:08:41.256Z,1013.85
2018-05-24T11:09:41.254Z,1013.82
2018-05-24T11:10:41.243Z,1013.76
2018-05-24T11:11:41.285Z,1013.83
2018-05-24T11:12:41.228Z,1013.82
2018-05-24T11:13:41.219Z,1013.87
2018-05-24T11:14:41.212Z,1013.81
2018-05-24T11:15:41.203Z,1013.81
2018-05-24T11:16:41.206Z,1013.75
2018-05-24T11:17:41.193Z,1013.73
2018-05-24T11:18:41.181Z,1013.71
2018-05-24T11:19:41.181Z,1013.82
2018-05-24T11:20:41.182Z,1013.69
2018-05-24T11:21:41.168Z,1013.63
2018-05-24T11:22:41.158Z,1013.61
2018-05-24T11:23:41.155Z,1013.60
2018-05-24T11:24:41.210Z,1013.54
2018-05-24T11:25:41.140Z,1013.59
2018-05-24T11:26:41.142Z,1013.53
2018-05-24T11:27:41.123Z,1013.53
2018-05-24T11:28:41.116Z,1013.55
2018-05-24T11:29:41.115Z,1013.59
2018-05-24T11:30:41.112Z,1013.57
2018-05-24T11:31:41.118Z,1013.54
2018-05-24T11:32:41.095Z,1013.52
2018-05-24T11:33:41.088Z,1013.61
2018-05-24T11:34:41.079Z,1013.63
2018-05-24T11:35:41.073Z,1013.68
2018-05-24T11:36:41.070Z,1013.72
2018-05-24T11:37:41.066Z,1013.68
2018-05-24T11:38:41.057Z,1013.64
2018-05-24T11:39:41.046Z,1013.68
2018-05-24T11:40:41.038Z,1013.67
2018-05-24T11:41:41.028Z,1013.69
2018-05-24T11:42:41.028Z,1013.67
2018-05-24T11:43:41.021Z,1013.68
2018-05-24T11:44:41.009Z,1013.64
2018-05-24T11:45:41.003Z,1013.66
2018-05-24T11:46:40.990Z,1013.65
2018-05-24T11:47:40.996Z,1013.60
2018-05-24T11:48:40.978Z,1013.63
2018-05-24T11:49:40.967Z,1013.62
2018-05-24T11:50:40.964Z,1013.61
2018-05-24T11:51:40.948Z,1013.62
2018-05-24T11:52:40.948Z,1013.58
2018-05-24T11:53:40.931Z,1013.59
2018-05-24T11:54:40.928Z,1013.60
2018-05-24T11:55:40.923Z,1013.65
2018-05-24T11:56:40.908Z,1013.66
2018-05-24T11:57:40.898Z,1013.65
2018-05-24T11:58:40.902Z,1013.64
2018-05-24T11:59:40.892Z,1013.64
2018-05-24T12:00:40.876Z,1013.60
2018-05-24T12:01:40.889Z,1013.56
2018-05-24T12:02:40.868Z,1013.68
2018-05-24T12:03:40.856Z,1013.58
2018-05-24T12:04:40.843Z,1013.61
2018-05-24T12:05:40.831Z,1013.62